createdAt,value
2019-02-15T00:01:25.991Z,8.17
2019-02-15T00:03:55.755Z,8.60
2019-02-15T00:06:25.580Z,8.43
2019-02-15T00:08:55.434Z,8.17
2019-02-15T00:11:25.329Z,7.60
2019-02-15T00:13:55.219Z,7.80
2019-02-15T00:16:25.089Z,7.70
2019-02-15T00:19:20.210Z,7.37
2019-02-15T00:21:51.515Z,7.00
2019-02-15T00:24:21.440Z,7.47
2019-02-15T00:26:51.552Z,7.30
2019-02-15T00:29:21.291Z,6.17
2019-02-15T00:31:52.396Z,6.43
2019-02-15T00:34:22.199Z,5.47
2019-02-15T00:36:51.896Z,5.90
2019-02-15T00:39:21.540Z,5.93
2019-02-15T00:41:51.236Z,5.73
2019-02-15T00:44:21.093Z,6.27
2019-02-15T00:47:21.738Z,5.93
2019-02-15T00:49:58.502Z,5.37
2019-02-15T00:52:44.554Z,6.47
2019-02-15T00:55:32.398Z,5.97
2019-02-15T00:58:29.728Z,6.83
2019-02-15T01:01:36.623Z,7.47
2019-02-15T01:04:25.345Z,7.90
2019-02-15T01:07:03.981Z,9.33
2019-02-15T01:10:04.697Z,9.40
2019-02-15T01:12:43.911Z,8.53
2019-02-15T01:15:13.808Z,9.30
2019-02-15T01:17:43.625Z,8.43
2019-02-15T01:20:13.386Z,9.53
2019-02-15T01:22:43.172Z,8.93
2019-02-15T01:25:13.139Z,10.83
2019-02-15T01:27:51.706Z,8.67
2019-02-15T01:30:34.116Z,10.57
2019-02-15T01:33:20.829Z,10.50
2019-02-15T01:36:08.035Z,8.97
2019-02-15T01:38:59.907Z,10.20
2019-02-15T01:41:46.399Z,10.80
2019-02-15T01:44:25.381Z,11.27
2019-02-15T01:47:05.617Z,11.00
2019-02-15T01:49:35.510Z,10.47
2019-02-15T01:52:05.398Z,10.90
2019-02-15T01:54:35.331Z,10.20
2019-02-15T01:57:05.181Z,10.40
2019-02-15T01:59:35.262Z,10.40
2019-02-15T02:02:04.960Z,11.50
2019-02-15T02:04:36.220Z,9.90
2019-02-15T02:07:06.017Z,8.50
2019-02-15T02:09:35.963Z,9.90
2019-02-15T02:12:06.102Z,8.70
2019-02-15T02:14:35.902Z,8.27
2019-02-15T02:17:05.913Z,9.03
2019-02-15T02:19:35.855Z,8.67
2019-02-15T02:22:05.520Z,7.70
2019-02-15T02:24:35.305Z,9.87
2019-02-15T02:27:05.165Z,7.57
2019-02-15T02:29:34.975Z,9.43
2019-02-15T02:32:05.045Z,8.77
2019-02-15T02:34:35.107Z,7.83
2019-02-15T02:37:05.041Z,10.27
2019-02-15T02:39:34.882Z,9.63
2019-02-15T02:42:04.698Z,8.33
2019-02-15T02:44:34.362Z,8.67
2019-02-15T02:47:03.992Z,9.10
2019-02-15T02:49:34.615Z,9.47
2019-02-15T02:52:04.531Z,8.47
2019-02-15T02:54:34.231Z,8.13
2019-02-15T02:57:04.105Z,8.70
2019-02-15T02:59:33.962Z,6.80
2019-02-15T03:02:03.767Z,8.77
2019-02-15T03:04:33.545Z,8.20
2019-02-15T03:07:03.426Z,6.57
2019-02-15T03:09:33.376Z,7.50
2019-02-15T03:12:03.139Z,7.03
2019-02-15T03:14:32.870Z,7.83
2019-02-15T03:17:02.805Z,6.77
2019-02-15T03:19:32.775Z,7.40
2019-02-15T03:22:02.388Z,6.73
2019-02-15T03:24:32.117Z,6.33
2019-02-15T03:27:02.177Z,6.23
2019-02-15T03:29:32.343Z,7.37
2019-02-15T03:32:01.973Z,6.67
2019-02-15T03:34:31.847Z,6.93
2019-02-15T03:37:23.547Z,6.87
2019-02-15T03:39:56.456Z,7.33
2019-02-15T03:42:26.205Z,5.97
2019-02-15T03:44:55.918Z,6.43
2019-02-15T03:47:27.957Z,5.40
2019-02-15T03:49:57.608Z,6.40
2019-02-15T03:52:27.379Z,5.63
2019-02-15T03:54:57.140Z,6.57
2019-02-15T03:57:27.117Z,5.53
2019-02-15T03:59:56.885Z,6.73
2019-02-15T04:02:26.761Z,5.73
2019-02-15T04:04:56.709Z,7.97
2019-02-15T04:07:26.536Z,8.63
2019-02-15T04:09:56.423Z,8.57
2019-02-15T04:12:26.319Z,8.80
2019-02-15T04:14:56.644Z,8.20
2019-02-15T04:17:26.463Z,10.50
2019-02-15T04:19:56.295Z,10.30
2019-02-15T04:22:27.191Z,10.63
2019-02-15T04:24:56.939Z,12.13
2019-02-15T04:27:26.675Z,10.30
2019-02-15T04:29:57.727Z,11.73
2019-02-15T04:32:27.219Z,10.23
2019-02-15T04:34:56.901Z,9.57
2019-02-15T04:37:26.682Z,9.27
2019-02-15T04:39:56.331Z,10.20
2019-02-15T04:42:26.272Z,11.83
2019-02-15T04:44:56.113Z,12.47
2019-02-15T04:47:26.075Z,10.00
2019-02-15T04:49:55.908Z,15.03
2019-02-15T04:52:25.986Z,12.60
2019-02-15T04:54:55.845Z,11.97
2019-02-15T04:57:25.563Z,12.77
2019-02-15T04:59:56.745Z,11.97
2019-02-15T05:02:26.402Z,10.50
2019-02-15T05:04:56.221Z,16.10
2019-02-15T05:07:26.201Z,13.97
2019-02-15T05:09:56.072Z,13.33
2019-02-15T05:12:25.972Z,13.93
2019-02-15T05:14:55.831Z,15.47
2019-02-15T05:17:25.594Z,13.87
2019-02-15T05:19:55.553Z,14.77
2019-02-15T05:22:25.389Z,14.47
2019-02-15T05:24:55.066Z,12.23
2019-02-15T05:27:24.852Z,12.00
2019-02-15T05:29:54.719Z,13.63
2019-02-15T05:32:24.587Z,11.17
2019-02-15T05:34:54.397Z,11.73
2019-02-15T05:37:24.265Z,13.27
2019-02-15T05:39:54.046Z,9.97
2019-02-15T05:42:23.861Z,10.47
2019-02-15T05:45:03.257Z,15.50
2019-02-15T05:47:26.337Z,13.90
2019-02-15T05:49:56.050Z,13.50
2019-02-15T05:52:27.429Z,9.23
2019-02-15T05:54:57.334Z,13.90
2019-02-15T05:57:27.040Z,10.43
2019-02-15T05:59:57.010Z,12.83
2019-02-15T06:02:26.778Z,10.10
2019-02-15T06:04:56.620Z,12.03
2019-02-15T06:07:26.388Z,10.30
2019-02-15T06:09:56.218Z,11.97
2019-02-15T06:12:26.274Z,12.27
2019-02-15T06:14:56.126Z,10.93
2019-02-15T06:17:26.361Z,11.20
2019-02-15T06:19:56.252Z,10.43
2019-02-15T06:22:26.302Z,11.83
2019-02-15T06:24:56.113Z,11.43
2019-02-15T06:27:27.301Z,10.23
2019-02-15T06:29:57.071Z,10.90
2019-02-15T06:32:27.013Z,11.50
2019-02-15T06:34:56.942Z,10.70
2019-02-15T06:37:26.719Z,11.13
2019-02-15T06:39:56.758Z,7.00
2019-02-15T06:42:26.611Z,9.50
2019-02-15T06:44:56.360Z,7.53
2019-02-15T06:47:25.980Z,8.87
2019-02-15T06:49:55.844Z,8.63
2019-02-15T06:52:25.618Z,8.23
2019-02-15T06:54:55.329Z,5.77
2019-02-15T06:57:25.182Z,7.83
2019-02-15T07:00:12.781Z,6.90
2019-02-15T07:02:56.065Z,9.00
2019-02-15T07:05:28.708Z,9.67
2019-02-15T07:07:58.529Z,6.57
2019-02-15T07:10:28.312Z,9.43
2019-02-15T07:12:58.216Z,6.97
2019-02-15T07:15:33.781Z,7.77
2019-02-15T07:17:59.590Z,7.13
2019-02-15T07:20:29.409Z,7.77
2019-02-15T07:22:59.856Z,7.03
2019-02-15T07:25:29.645Z,7.73
2019-02-15T07:27:59.505Z,6.93
2019-02-15T07:30:30.520Z,8.17
2019-02-15T07:33:00.319Z,7.90
2019-02-15T07:35:30.148Z,8.50
2019-02-15T07:38:00.085Z,6.53
2019-02-15T07:40:29.964Z,6.53
2019-02-15T07:42:59.674Z,6.37
2019-02-15T07:45:29.425Z,6.80
2019-02-15T07:47:59.318Z,6.20
2019-02-15T07:50:29.319Z,6.80
2019-02-15T07:52:59.236Z,6.07
2019-02-15T07:55:28.994Z,7.23
2019-02-15T07:57:58.879Z,7.03
2019-02-15T08:00:28.972Z,6.20
2019-02-15T08:02:58.809Z,5.57
2019-02-15T08:05:28.764Z,5.80
2019-02-15T08:07:58.548Z,6.30
2019-02-15T08:10:28.236Z,5.50
2019-02-15T08:12:57.989Z,5.07
2019-02-15T08:15:35.980Z,4.53
2019-02-15T08:17:59.116Z,4.97
2019-02-15T08:20:28.755Z,5.40
2019-02-15T08:22:58.603Z,4.77
2019-02-15T08:25:28.467Z,4.47
2019-02-15T08:27:58.395Z,5.53
2019-02-15T08:30:29.439Z,3.87
2019-02-15T08:32:59.438Z,4.50
2019-02-15T08:35:29.473Z,4.27
2019-02-15T08:37:59.206Z,4.17
2019-02-15T08:40:28.881Z,4.57
2019-02-15T08:42:58.725Z,3.90
2019-02-15T08:45:28.732Z,3.50
2019-02-15T08:47:58.513Z,4.10
2019-02-15T08:50:28.258Z,4.47
2019-02-15T08:52:58.109Z,4.83
2019-02-15T08:55:27.877Z,4.10
2019-02-15T08:57:58.203Z,5.03
2019-02-15T09:00:28.150Z,5.17
2019-02-15T09:02:58.022Z,4.07
2019-02-15T09:05:28.985Z,4.67
2019-02-15T09:07:59.108Z,4.63
2019-02-15T09:10:29.012Z,4.70
2019-02-15T09:12:59.009Z,4.47
2019-02-15T09:15:28.734Z,4.97
2019-02-15T09:17:59.707Z,4.07
2019-02-15T09:20:29.623Z,3.03
2019-02-15T09:22:59.507Z,4.47
2019-02-15T09:25:29.684Z,4.33
2019-02-15T09:28:18.244Z,4.13
2019-02-15T09:30:52.012Z,4.00
2019-02-15T09:33:22.629Z,4.93
2019-02-15T09:35:52.370Z,3.63
2019-02-15T09:38:22.316Z,3.93
2019-02-15T09:40:52.278Z,4.83
2019-02-15T09:43:22.108Z,4.87
2019-02-15T09:45:51.949Z,4.00
2019-02-15T09:48:21.726Z,4.73
2019-02-15T09:50:51.673Z,4.07
2019-02-15T09:53:21.602Z,3.97
2019-02-15T09:55:51.381Z,4.07
2019-02-15T09:58:21.084Z,4.43
2019-02-15T10:00:51.013Z,4.53
2019-02-15T10:03:20.825Z,5.57
2019-02-15T10:05:51.058Z,5.10
2019-02-15T10:08:20.790Z,3.60
2019-02-15T10:10:50.716Z,3.97
2019-02-15T10:13:20.379Z,4.03
2019-02-15T10:15:50.142Z,4.30
2019-02-15T10:18:19.906Z,3.63
2019-02-15T10:20:49.823Z,3.70
2019-02-15T10:23:19.793Z,4.00
2019-02-15T10:25:49.567Z,4.03
2019-02-15T10:28:19.372Z,3.90
2019-02-15T10:30:49.119Z,4.27
2019-02-15T10:33:18.890Z,3.60
2019-02-15T10:35:48.795Z,4.40
2019-02-15T10:38:19.774Z,4.37
2019-02-15T10:40:49.683Z,3.87
2019-02-15T10:43:19.386Z,3.97
2019-02-15T10:45:50.436Z,4.30
2019-02-15T10:48:20.445Z,4.20
2019-02-15T10:50:50.252Z,3.73
2019-02-15T10:53:20.246Z,4.37
2019-02-15T10:55:50.109Z,3.73
2019-02-15T10:58:20.228Z,3.43
2019-02-15T11:00:50.177Z,3.40
2019-02-15T11:03:20.056Z,3.00
2019-02-15T11:05:49.962Z,3.43
2019-02-15T11:08:19.912Z,3.40
2019-02-15T11:10:49.630Z,3.20
2019-02-15T11:13:19.397Z,3.30
2019-02-15T11:15:49.219Z,2.90
2019-02-15T11:18:20.180Z,2.80
2019-02-15T11:20:50.090Z,3.43
2019-02-15T11:23:19.816Z,3.30
2019-02-15T11:25:49.846Z,4.13
2019-02-15T11:28:19.621Z,3.50
2019-02-15T11:30:49.650Z,5.27
2019-02-15T11:33:19.398Z,4.07
2019-02-15T11:35:49.213Z,2.87
2019-02-15T11:38:21.210Z,3.27
2019-02-15T11:40:51.068Z,2.57
2019-02-15T11:43:20.852Z,2.10
2019-02-15T11:45:50.865Z,3.03
2019-02-15T11:48:20.586Z,3.03
2019-02-15T11:50:50.436Z,2.67
2019-02-15T11:53:20.328Z,3.27
2019-02-15T11:55:50.129Z,2.50
2019-02-15T11:58:20.008Z,3.77
2019-02-15T12:00:49.652Z,3.60
2019-02-15T12:03:19.474Z,3.87
2019-02-15T12:05:49.240Z,3.50
2019-02-15T12:08:19.220Z,3.00
2019-02-15T12:10:49.017Z,2.70
2019-02-15T12:13:20.001Z,3.07
2019-02-15T12:15:49.876Z,3.60
2019-02-15T12:18:19.694Z,3.20
2019-02-15T12:20:49.690Z,3.67
2019-02-15T12:23:19.319Z,4.60
2019-02-15T12:25:49.151Z,3.50
2019-02-15T12:28:20.335Z,3.60
2019-02-15T12:30:50.195Z,2.97
2019-02-15T12:33:20.018Z,4.63
2019-02-15T12:35:51.070Z,3.50
2019-02-15T12:38:20.961Z,3.73
2019-02-15T12:40:50.701Z,3.90
2019-02-15T12:43:20.645Z,3.17
2019-02-15T12:45:50.856Z,4.07
2019-02-15T12:48:21.065Z,3.70
2019-02-15T12:50:51.307Z,4.43
2019-02-15T12:53:21.323Z,4.17
2019-02-15T12:55:51.109Z,2.87
2019-02-15T12:58:20.952Z,3.90
2019-02-15T13:00:50.879Z,3.77
2019-02-15T13:03:20.650Z,4.50
2019-02-15T13:05:50.585Z,2.93
2019-02-15T13:08:20.561Z,3.87
2019-02-15T13:10:50.340Z,2.80
2019-02-15T13:13:20.232Z,3.30
2019-02-15T13:15:50.001Z,3.03
2019-02-15T13:18:19.856Z,3.27
2019-02-15T13:20:49.672Z,3.53
2019-02-15T13:23:19.415Z,2.47
2019-02-15T13:25:49.621Z,3.97
2019-02-15T13:28:20.419Z,3.50
2019-02-15T13:30:51.483Z,4.20
2019-02-15T13:33:21.309Z,3.97
2019-02-15T13:35:51.125Z,4.33
2019-02-15T13:38:21.100Z,4.83
2019-02-15T13:40:51.051Z,3.93
2019-02-15T13:43:20.976Z,3.37
2019-02-15T13:45:50.834Z,3.40
2019-02-15T13:48:20.596Z,4.20
2019-02-15T13:50:50.518Z,4.77
2019-02-15T13:53:20.359Z,5.27
2019-02-15T13:55:50.221Z,4.80
2019-02-15T13:58:19.960Z,5.43
2019-02-15T14:00:49.907Z,3.23
2019-02-15T14:03:19.665Z,4.17
2019-02-15T14:05:49.619Z,5.37
2019-02-15T14:08:19.356Z,3.67
2019-02-15T14:10:49.025Z,4.67
2019-02-15T14:13:18.741Z,4.87
2019-02-15T14:15:48.618Z,4.47
2019-02-15T14:18:18.755Z,5.90
2019-02-15T14:20:48.603Z,5.43
2019-02-15T14:23:18.545Z,4.90
2019-02-15T14:25:48.306Z,4.90
2019-02-15T14:28:18.018Z,4.77
2019-02-15T14:30:49.204Z,4.40
2019-02-15T14:33:19.002Z,5.00
2019-02-15T14:35:49.017Z,3.27
2019-02-15T14:38:18.885Z,6.13
2019-02-15T14:40:48.760Z,4.87
2019-02-15T14:43:19.901Z,5.67
2019-02-15T14:45:49.790Z,4.80
2019-02-15T14:48:20.090Z,5.17
2019-02-15T14:50:49.997Z,5.37
2019-02-15T14:53:19.640Z,5.47
2019-02-15T14:55:49.346Z,4.50
2019-02-15T14:58:19.103Z,5.30
2019-02-15T15:00:48.887Z,5.70
2019-02-15T15:03:18.797Z,5.87
2019-02-15T15:05:48.786Z,6.00
2019-02-15T15:08:19.465Z,6.30
2019-02-15T15:10:49.437Z,6.50
2019-02-15T15:13:19.283Z,6.07
2019-02-15T15:15:49.200Z,6.83
2019-02-15T15:18:18.861Z,5.83
2019-02-15T15:20:48.737Z,6.60
2019-02-15T15:23:18.560Z,5.93
2019-02-15T15:25:48.493Z,5.30
2019-02-15T15:28:18.520Z,4.93
2019-02-15T15:30:48.315Z,6.60
2019-02-15T15:33:18.172Z,12.27
2019-02-15T15:35:48.053Z,4.77
2019-02-15T15:38:17.866Z,6.70
2019-02-15T15:40:49.023Z,7.20
2019-02-15T15:43:18.904Z,8.07
2019-02-15T15:45:48.724Z,8.37
2019-02-15T15:48:22.711Z,8.00
2019-02-15T15:50:51.418Z,7.97
2019-02-15T15:53:21.147Z,6.87
2019-02-15T15:55:50.897Z,8.07
2019-02-15T15:58:20.669Z,6.77
2019-02-15T16:00:50.584Z,6.23
2019-02-15T16:03:20.448Z,6.40
2019-02-15T16:05:50.221Z,6.53
2019-02-15T16:08:21.353Z,6.63
2019-02-15T16:10:51.531Z,6.60
2019-02-15T16:13:21.303Z,6.40
2019-02-15T16:15:51.152Z,5.97
2019-02-15T16:18:21.141Z,7.77
2019-02-15T16:20:50.950Z,7.00
2019-02-15T16:23:20.810Z,9.73
2019-02-15T16:25:50.457Z,9.07
2019-02-15T16:28:20.451Z,8.07
2019-02-15T16:30:50.091Z,7.83
2019-02-15T16:33:19.884Z,8.47
2019-02-15T16:35:49.661Z,7.30
2019-02-15T16:38:20.979Z,8.03
2019-02-15T16:40:51.001Z,8.37
2019-02-15T16:43:20.834Z,8.23
2019-02-15T16:45:50.717Z,8.33
2019-02-15T16:48:20.635Z,7.77
2019-02-15T16:50:50.412Z,6.70
2019-02-15T16:53:20.160Z,7.23
2019-02-15T16:55:50.096Z,7.93
2019-02-15T16:58:19.836Z,6.67
2019-02-15T17:00:50.138Z,6.40
2019-02-15T17:03:20.166Z,6.33
2019-02-15T17:05:49.995Z,6.30
2019-02-15T17:08:19.771Z,6.53
2019-02-15T17:10:49.690Z,5.70
2019-02-15T17:13:19.654Z,6.40
2019-02-15T17:15:49.409Z,5.90
2019-02-15T17:18:19.223Z,5.37
2019-02-15T17:20:49.180Z,6.23
2019-02-15T17:23:19.111Z,5.57
2019-02-15T17:25:48.990Z,6.17
2019-02-15T17:28:18.904Z,5.13
2019-02-15T17:30:49.954Z,5.10
2019-02-15T17:33:19.638Z,5.13
2019-02-15T17:35:49.370Z,5.37
2019-02-15T17:38:19.246Z,5.63
2019-02-15T17:40:49.906Z,5.20
2019-02-15T17:43:19.825Z,4.37
2019-02-15T17:45:49.793Z,4.77
2019-02-15T17:48:19.639Z,5.63
2019-02-15T17:50:49.267Z,5.20
2019-02-15T17:53:20.331Z,4.57
2019-02-15T17:55:50.437Z,4.57
2019-02-15T17:58:20.335Z,4.07
2019-02-15T18:00:50.006Z,4.20
2019-02-15T18:03:19.770Z,4.73
2019-02-15T18:05:49.587Z,4.70
2019-02-15T18:08:19.405Z,4.90
2019-02-15T18:10:49.422Z,4.00
2019-02-15T18:13:19.202Z,4.27
2019-02-15T18:15:49.061Z,4.10
2019-02-15T18:18:18.840Z,4.20
2019-02-15T18:20:48.701Z,3.80
2019-02-15T18:23:18.398Z,4.40
2019-02-15T18:25:48.278Z,5.43
2019-02-15T18:28:18.437Z,4.67
2019-02-15T18:30:48.357Z,5.20
2019-02-15T18:33:18.212Z,5.33
2019-02-15T18:35:48.140Z,5.10
2019-02-15T18:38:17.786Z,4.97
2019-02-15T18:40:48.949Z,4.97
2019-02-15T18:43:18.759Z,5.07
2019-02-15T18:45:48.552Z,5.57
2019-02-15T18:48:18.514Z,4.97
2019-02-15T18:50:48.185Z,5.70
2019-02-15T18:53:18.148Z,5.30
2019-02-15T18:55:48.026Z,4.47
2019-02-15T18:58:18.039Z,4.27
2019-02-15T19:00:47.921Z,5.07
2019-02-15T19:03:17.950Z,6.00
2019-02-15T19:05:47.792Z,4.93
2019-02-15T19:08:17.921Z,5.20
2019-02-15T19:10:48.031Z,5.67
2019-02-15T19:13:17.901Z,5.97
2019-02-15T19:15:47.862Z,5.40
2019-02-15T19:18:17.662Z,5.70
2019-02-15T19:20:47.298Z,5.00
2019-02-15T19:23:17.158Z,5.47
2019-02-15T19:25:46.947Z,4.97
2019-02-15T19:28:16.850Z,5.53
2019-02-15T19:30:46.760Z,6.13
2019-02-15T19:33:16.662Z,5.63
2019-02-15T19:35:46.415Z,5.33
2019-02-15T19:38:16.238Z,5.97
2019-02-15T19:40:46.118Z,5.97
2019-02-15T19:43:16.086Z,5.23
2019-02-15T19:45:46.121Z,7.03
2019-02-15T19:48:15.875Z,6.23
2019-02-15T19:50:45.751Z,6.17
2019-02-15T19:53:15.632Z,6.57
2019-02-15T19:55:45.311Z,5.73
2019-02-15T19:58:15.078Z,5.40
2019-02-15T20:00:44.746Z,6.50
2019-02-15T20:03:14.473Z,6.00
2019-02-15T20:05:44.317Z,5.90
2019-02-15T20:08:14.075Z,6.23
2019-02-15T20:10:43.918Z,6.00
2019-02-15T20:13:13.687Z,6.60
2019-02-15T20:15:43.405Z,7.33
2019-02-15T20:18:14.473Z,7.73
2019-02-15T20:20:44.372Z,7.70
2019-02-15T20:23:14.283Z,7.90
2019-02-15T20:25:45.258Z,6.57
2019-02-15T20:28:15.041Z,8.13
2019-02-15T20:30:44.852Z,8.20
2019-02-15T20:33:15.283Z,7.97
2019-02-15T20:35:45.375Z,9.43
2019-02-15T20:38:15.143Z,8.63
2019-02-15T20:40:44.963Z,9.30
2019-02-15T20:43:14.853Z,9.03
2019-02-15T20:45:44.577Z,9.27
2019-02-15T20:48:14.439Z,8.63
2019-02-15T20:50:44.299Z,7.67
2019-02-15T20:53:14.004Z,7.70
2019-02-15T20:55:45.157Z,7.67
2019-02-15T20:58:14.979Z,8.50
2019-02-15T21:00:45.099Z,6.97
2019-02-15T21:03:15.044Z,7.80
2019-02-15T21:05:44.800Z,7.90
2019-02-15T21:08:14.529Z,8.37
2019-02-15T21:10:44.421Z,9.07
2019-02-15T21:13:20.224Z,8.60
2019-02-15T21:15:46.954Z,8.70
2019-02-15T21:18:16.767Z,9.87
2019-02-15T21:20:46.680Z,8.80
2019-02-15T21:23:16.614Z,8.83
2019-02-15T21:25:46.397Z,9.00
2019-02-15T21:28:16.224Z,8.47
2019-02-15T21:30:48.101Z,8.40
2019-02-15T21:33:18.299Z,8.77
2019-02-15T21:35:48.451Z,9.03
2019-02-15T21:38:18.288Z,8.37
2019-02-15T21:40:48.299Z,8.63
2019-02-15T21:43:18.173Z,8.97
2019-02-15T21:45:48.092Z,8.93
2019-02-15T21:48:18.027Z,9.13
2019-02-15T21:50:47.853Z,8.67
2019-02-15T21:53:17.758Z,9.83
2019-02-15T21:55:47.610Z,8.90
2019-02-15T21:58:17.505Z,8.77
2019-02-15T22:00:47.283Z,9.73
2019-02-15T22:03:17.311Z,8.57
2019-02-15T22:05:47.168Z,10.07
2019-02-15T22:08:16.942Z,10.67
2019-02-15T22:10:46.737Z,12.60
2019-02-15T22:13:17.830Z,12.70
2019-02-15T22:15:47.692Z,12.37
2019-02-15T22:18:17.434Z,12.87
2019-02-15T22:20:47.268Z,13.23
2019-02-15T22:23:17.043Z,13.23
2019-02-15T22:25:47.072Z,15.27
2019-02-15T22:28:17.045Z,15.97
2019-02-15T22:30:46.991Z,15.43
2019-02-15T22:33:16.639Z,16.00
2019-02-15T22:35:46.382Z,15.53
2019-02-15T22:38:16.137Z,15.90
2019-02-15T22:40:46.864Z,17.03
2019-02-15T22:43:21.787Z,16.00
2019-02-15T22:45:51.516Z,17.37
2019-02-15T22:48:21.391Z,18.50
2019-02-15T22:50:51.250Z,16.23
2019-02-15T22:53:21.062Z,18.20
2019-02-15T22:55:50.816Z,19.40
2019-02-15T22:58:20.487Z,17.87
2019-02-15T23:00:58.329Z,19.27
2019-02-15T23:03:28.428Z,18.17
2019-02-15T23:05:58.668Z,18.73
2019-02-15T23:08:28.440Z,17.77
2019-02-15T23:10:58.356Z,18.30
2019-02-15T23:13:28.226Z,18.83
2019-02-15T23:15:57.885Z,20.60
2019-02-15T23:18:27.726Z,18.97
2019-02-15T23:20:58.990Z,18.33
2019-02-15T23:23:28.885Z,17.03
2019-02-15T23:25:58.581Z,17.70
2019-02-15T23:28:28.621Z,18.13
2019-02-15T23:30:58.608Z,18.30
2019-02-15T23:33:28.340Z,19.13
2019-02-15T23:35:58.217Z,18.83
2019-02-15T23:38:27.951Z,18.43
2019-02-15T23:40:57.786Z,18.80
2019-02-15T23:43:27.721Z,19.90
2019-02-15T23:45:57.511Z,18.13
2019-02-15T23:48:27.337Z,19.47
2019-02-15T23:50:57.264Z,18.93
2019-02-15T23:53:27.149Z,20.67
2019-02-15T23:55:57.031Z,18.43
2019-02-15T23:58:26.874Z,17.77
